createdAt,value
2018-11-25T00:05:48.382Z,25.20
2018-11-25T00:15:51.640Z,33.93
2018-11-25T00:25:54.906Z,35.27
2018-11-25T00:35:58.130Z,31.20
2018-11-25T00:46:01.337Z,22.77
2018-11-25T00:56:04.630Z,26.83
2018-11-25T01:06:07.843Z,27.10
2018-11-25T01:16:11.077Z,26.67
2018-11-25T01:26:14.302Z,26.50
2018-11-25T01:36:17.522Z,23.87
2018-11-25T01:46:20.733Z,23.20
2018-11-25T01:56:24.006Z,23.17
2018-11-25T02:06:27.249Z,23.57
2018-11-25T02:16:30.506Z,23.13
2018-11-25T02:26:33.734Z,25.10
2018-11-25T02:36:36.986Z,20.97
2018-11-25T02:46:40.234Z,19.50
2018-11-25T02:56:43.490Z,22.70
2018-11-25T03:06:46.739Z,18.57
2018-11-25T03:16:50.008Z,20.47
2018-11-25T03:26:53.260Z,18.27
2018-11-25T03:36:56.497Z,23.80
2018-11-25T03:46:59.738Z,22.17
2018-11-25T03:57:03.005Z,20.67
2018-11-25T04:07:06.328Z,20.83
2018-11-25T04:17:09.533Z,16.87
2018-11-25T04:27:12.777Z,22.00
2018-11-25T04:37:15.998Z,20.03
2018-11-25T04:47:19.225Z,20.30
2018-11-25T04:57:22.478Z,17.47
2018-11-25T05:07:25.700Z,19.43
2018-11-25T05:17:30.175Z,21.10
2018-11-25T05:27:32.161Z,18.13
2018-11-25T05:37:35.388Z,19.47
2018-11-25T05:47:38.653Z,19.07
2018-11-25T05:57:42.065Z,19.23
2018-11-25T06:07:45.287Z,18.53
2018-11-25T06:17:48.533Z,28.07
2018-11-25T06:27:51.806Z,17.37
2018-11-25T06:37:55.041Z,19.50
2018-11-25T06:47:58.677Z,16.43
2018-11-25T06:58:01.977Z,17.23
2018-11-25T07:08:05.625Z,17.67
2018-11-25T07:18:08.863Z,17.13
2018-11-25T07:28:18.576Z,15.00
2018-11-25T07:38:16.181Z,18.07
2018-11-25T07:48:19.399Z,20.20
2018-11-25T07:58:22.666Z,19.57
2018-11-25T08:08:26.001Z,18.80
2018-11-25T08:18:29.381Z,14.33
2018-11-25T08:28:32.703Z,16.70
2018-11-25T08:38:36.018Z,20.23
2018-11-25T08:48:39.407Z,22.30
2018-11-25T08:58:42.739Z,23.80
2018-11-25T09:08:46.212Z,24.87
2018-11-25T09:18:49.404Z,24.07
2018-11-25T09:28:52.749Z,25.03
2018-11-25T09:38:56.134Z,24.80
2018-11-25T09:48:59.393Z,24.17
2018-11-25T09:59:02.668Z,26.07
2018-11-25T10:09:08.445Z,26.50
2018-11-25T10:19:11.742Z,26.73
2018-11-25T10:29:14.971Z,24.27
2018-11-25T10:39:18.223Z,22.70
2018-11-25T10:49:22.512Z,23.40
2018-11-25T10:59:24.953Z,23.40
2018-11-25T11:09:28.333Z,24.57
2018-11-25T11:19:31.681Z,21.27
2018-11-25T11:29:34.986Z,20.97
2018-11-25T11:39:38.377Z,20.80
2018-11-25T11:49:41.745Z,21.47
2018-11-25T11:59:45.274Z,21.60
2018-11-25T12:09:48.737Z,20.07
2018-11-25T12:19:52.089Z,20.30
2018-11-25T12:29:55.442Z,20.50
2018-11-25T12:39:58.732Z,26.33
2018-11-25T12:50:02.125Z,22.30
2018-11-25T13:00:13.961Z,23.67
2018-11-25T13:10:17.493Z,22.50
2018-11-25T13:20:21.898Z,22.63
2018-11-25T13:30:26.716Z,22.90
2018-11-25T13:40:30.310Z,23.13
2018-11-25T13:50:33.915Z,22.47
2018-11-25T14:00:42.397Z,23.57
2018-11-25T14:10:45.753Z,24.40
2018-11-25T14:20:49.123Z,25.53
2018-11-25T14:30:52.499Z,25.23
2018-11-25T14:40:56.124Z,23.70
2018-11-25T14:50:59.442Z,22.77
2018-11-25T15:01:02.782Z,23.57
2018-11-25T15:11:07.309Z,25.20
2018-11-25T15:21:12.187Z,25.33
2018-11-25T15:31:15.541Z,24.50
2018-11-25T15:41:19.853Z,24.90
2018-11-25T15:51:23.336Z,23.47
2018-11-25T16:01:26.913Z,21.60
2018-11-25T16:11:30.220Z,22.13
2018-11-25T16:21:33.499Z,23.90
2018-11-25T16:31:36.859Z,26.10
2018-11-25T16:41:40.238Z,26.13
2018-11-25T16:51:43.538Z,26.97
2018-11-25T17:01:46.879Z,26.07
2018-11-25T17:11:50.229Z,26.03
2018-11-25T17:21:53.882Z,26.00
2018-11-25T17:31:57.240Z,25.30
2018-11-25T17:42:00.577Z,26.73
2018-11-25T17:52:03.908Z,30.30
2018-11-25T18:02:07.265Z,27.50
2018-11-25T18:12:10.681Z,31.60
2018-11-25T18:22:17.700Z,30.43
2018-11-25T18:32:21.063Z,31.10
2018-11-25T18:42:24.356Z,28.83
2018-11-25T18:52:27.676Z,31.00
2018-11-25T19:02:46.410Z,31.20
2018-11-25T19:12:49.749Z,28.70
2018-11-25T19:22:53.358Z,36.60
2018-11-25T19:32:56.718Z,30.50
2018-11-25T19:43:00.078Z,33.00
2018-11-25T19:53:03.398Z,36.17
2018-11-25T20:03:07.109Z,32.47
2018-11-25T20:13:11.931Z,33.20
2018-11-25T20:23:15.278Z,33.73
2018-11-25T20:33:24.119Z,40.97
2018-11-25T20:43:27.474Z,34.27
2018-11-25T20:53:36.170Z,33.13
2018-11-25T21:03:40.063Z,31.30
2018-11-25T21:13:43.329Z,29.57
2018-11-25T21:23:46.671Z,28.20
2018-11-25T21:33:50.053Z,30.57
2018-11-25T21:43:53.408Z,25.10
2018-11-25T21:53:56.709Z,23.97
2018-11-25T22:04:00.066Z,19.00
2018-11-25T22:14:03.422Z,18.50
2018-11-25T22:24:06.757Z,19.30
2018-11-25T22:34:10.090Z,19.50
2018-11-25T22:44:13.438Z,19.53
2018-11-25T22:54:16.853Z,17.27
2018-11-25T23:04:31.720Z,21.33
2018-11-25T23:14:35.298Z,23.60
2018-11-25T23:24:38.821Z,23.87
2018-11-25T23:34:42.134Z,22.50
2018-11-25T23:44:45.797Z,22.27
2018-11-25T23:54:49.120Z,24.50
